sensor_id;sensor_type;location;lat;lon;timestamp;P1;durP1;ratioP1;P2;durP2;ratioP2
19209;SDS011;9738;51.654;14.238;2022-08-16T00:00:53;7.33;;;4.93;;
19209;SDS011;9738;51.654;14.238;2022-08-16T00:03:19;8.10;;;5.70;;
19209;SDS011;9738;51.654;14.238;2022-08-16T00:05:46;7.77;;;4.93;;
19209;SDS011;9738;51.654;14.238;2022-08-16T00:08:12;6.00;;;4.80;;
19209;SDS011;9738;51.654;14.238;2022-08-16T00:10:37;5.77;;;4.80;;
19209;SDS011;9738;51.654;14.238;2022-08-16T00:13:05;6.07;;;4.93;;
19209;SDS011;9738;51.654;14.238;2022-08-16T00:15:38;5.60;;;4.20;;
19209;SDS011;9738;51.654;14.238;2022-08-16T00:18:06;6.30;;;4.83;;
19209;SDS011;9738;51.654;14.238;2022-08-16T00:20:34;6.73;;;5.17;;
19209;SDS011;9738;51.654;14.238;2022-08-16T00:23:01;5.27;;;4.70;;
19209;SDS011;9738;51.654;14.238;2022-08-16T00:25:28;7.93;;;4.33;;
19209;SDS011;9738;51.654;14.238;2022-08-16T00:27:54;6.37;;;4.63;;
19209;SDS011;9738;51.654;14.238;2022-08-16T00:30:20;6.40;;;4.40;;
19209;SDS011;9738;51.654;14.238;2022-08-16T00:32:48;7.70;;;4.83;;
19209;SDS011;9738;51.654;14.238;2022-08-16T00:35:18;6.77;;;4.57;;
19209;SDS011;9738;51.654;14.238;2022-08-16T00:37:47;6.57;;;4.57;;
19209;SDS011;9738;51.654;14.238;2022-08-16T00:40:16;6.70;;;4.37;;
19209;SDS011;9738;51.654;14.238;2022-08-16T00:42:44;6.93;;;4.93;;
19209;SDS011;9738;51.654;14.238;2022-08-16T00:45:19;5.03;;;4.50;;
19209;SDS011;9738;51.654;14.238;2022-08-16T00:47:49;6.30;;;4.50;;
19209;SDS011;9738;51.654;14.238;2022-08-16T00:50:18;5.90;;;4.67;;
19209;SDS011;9738;51.654;14.238;2022-08-16T00:52:45;4.40;;;3.83;;
19209;SDS011;9738;51.654;14.238;2022-08-16T00:55:11;4.67;;;3.97;;
19209;SDS011;9738;51.654;14.238;2022-08-16T00:57:37;6.60;;;4.50;;
19209;SDS011;9738;51.654;14.238;2022-08-16T01:00:04;5.17;;;4.13;;
19209;SDS011;9738;51.654;14.238;2022-08-16T01:02:33;5.70;;;4.80;;
19209;SDS011;9738;51.654;14.238;2022-08-16T01:04:59;6.40;;;4.20;;
19209;SDS011;9738;51.654;14.238;2022-08-16T01:07:25;4.63;;;3.47;;
19209;SDS011;9738;51.654;14.238;2022-08-16T01:09:52;6.40;;;4.40;;
19209;SDS011;9738;51.654;14.238;2022-08-16T01:12:18;5.37;;;4.03;;
19209;SDS011;9738;51.654;14.238;2022-08-16T01:14:51;5.77;;;4.20;;
19209;SDS011;9738;51.654;14.238;2022-08-16T01:17:21;4.63;;;3.67;;
19209;SDS011;9738;51.654;14.238;2022-08-16T01:19:53;7.40;;;3.93;;
19209;SDS011;9738;51.654;14.238;2022-08-16T01:22:29;5.97;;;3.90;;
19209;SDS011;9738;51.654;14.238;2022-08-16T01:25:09;4.53;;;3.60;;
19209;SDS011;9738;51.654;14.238;2022-08-16T01:27:47;4.53;;;3.47;;
19209;SDS011;9738;51.654;14.238;2022-08-16T01:32:44;5.13;;;3.63;;
19209;SDS011;9738;51.654;14.238;2022-08-16T01:40:42;3.70;;;3.40;;
19209;SDS011;9738;51.654;14.238;2022-08-16T01:43:08;4.47;;;3.30;;
19209;SDS011;9738;51.654;14.238;2022-08-16T01:45:35;4.00;;;3.47;;
19209;SDS011;9738;51.654;14.238;2022-08-16T01:48:00;5.53;;;3.77;;
19209;SDS011;9738;51.654;14.238;2022-08-16T01:50:26;3.67;;;3.37;;
19209;SDS011;9738;51.654;14.238;2022-08-16T01:52:53;4.57;;;3.40;;
19209;SDS011;9738;51.654;14.238;2022-08-16T01:55:20;4.67;;;3.67;;
19209;SDS011;9738;51.654;14.238;2022-08-16T01:57:47;3.90;;;3.00;;
19209;SDS011;9738;51.654;14.238;2022-08-16T02:00:14;5.13;;;3.47;;
19209;SDS011;9738;51.654;14.238;2022-08-16T02:02:42;4.63;;;3.73;;
19209;SDS011;9738;51.654;14.238;2022-08-16T02:05:08;3.93;;;3.43;;
19209;SDS011;9738;51.654;14.238;2022-08-16T02:07:36;4.20;;;3.80;;
19209;SDS011;9738;51.654;14.238;2022-08-16T02:10:04;4.23;;;3.47;;
19209;SDS011;9738;51.654;14.238;2022-08-16T02:12:31;5.57;;;3.90;;
19209;SDS011;9738;51.654;14.238;2022-08-16T02:14:58;4.47;;;3.20;;
19209;SDS011;9738;51.654;14.238;2022-08-16T02:17:24;4.20;;;3.17;;
19209;SDS011;9738;51.654;14.238;2022-08-16T02:19:51;4.97;;;3.93;;
19209;SDS011;9738;51.654;14.238;2022-08-16T02:22:20;4.47;;;3.67;;
19209;SDS011;9738;51.654;14.238;2022-08-16T02:24:48;3.83;;;3.37;;
19209;SDS011;9738;51.654;14.238;2022-08-16T02:27:15;4.63;;;3.77;;
19209;SDS011;9738;51.654;14.238;2022-08-16T02:29:41;5.57;;;3.47;;
19209;SDS011;9738;51.654;14.238;2022-08-16T02:32:11;4.47;;;3.60;;
19209;SDS011;9738;51.654;14.238;2022-08-16T02:34:39;5.47;;;3.97;;
19209;SDS011;9738;51.654;14.238;2022-08-16T02:37:06;4.33;;;3.60;;
19209;SDS011;9738;51.654;14.238;2022-08-16T02:39:32;5.07;;;3.50;;
19209;SDS011;9738;51.654;14.238;2022-08-16T02:41:58;5.23;;;3.57;;
19209;SDS011;9738;51.654;14.238;2022-08-16T02:44:24;5.53;;;3.50;;
19209;SDS011;9738;51.654;14.238;2022-08-16T02:46:50;4.27;;;3.37;;
19209;SDS011;9738;51.654;14.238;2022-08-16T02:49:17;4.60;;;3.47;;
19209;SDS011;9738;51.654;14.238;2022-08-16T02:51:43;5.07;;;3.63;;
19209;SDS011;9738;51.654;14.238;2022-08-16T02:54:09;6.83;;;4.93;;
19209;SDS011;9738;51.654;14.238;2022-08-16T02:56:38;4.53;;;3.67;;
19209;SDS011;9738;51.654;14.238;2022-08-16T02:59:05;4.50;;;4.10;;
19209;SDS011;9738;51.654;14.238;2022-08-16T03:01:31;6.40;;;4.13;;
19209;SDS011;9738;51.654;14.238;2022-08-16T03:03:58;4.10;;;3.50;;
19209;SDS011;9738;51.654;14.238;2022-08-16T03:06:25;4.00;;;3.50;;
19209;SDS011;9738;51.654;14.238;2022-08-16T03:08:52;5.10;;;4.00;;
19209;SDS011;9738;51.654;14.238;2022-08-16T03:11:18;5.40;;;3.77;;
19209;SDS011;9738;51.654;14.238;2022-08-16T03:13:46;5.07;;;3.80;;
19209;SDS011;9738;51.654;14.238;2022-08-16T03:16:14;3.93;;;3.33;;
19209;SDS011;9738;51.654;14.238;2022-08-16T03:18:40;4.63;;;3.13;;
19209;SDS011;9738;51.654;14.238;2022-08-16T03:21:07;4.37;;;3.97;;
19209;SDS011;9738;51.654;14.238;2022-08-16T03:23:34;4.00;;;3.60;;
19209;SDS011;9738;51.654;14.238;2022-08-16T03:26:00;4.40;;;3.83;;
19209;SDS011;9738;51.654;14.238;2022-08-16T03:28:27;5.90;;;3.83;;
19209;SDS011;9738;51.654;14.238;2022-08-16T03:30:52;4.23;;;3.47;;
19209;SDS011;9738;51.654;14.238;2022-08-16T03:33:18;4.03;;;3.63;;
19209;SDS011;9738;51.654;14.238;2022-08-16T03:35:44;4.40;;;3.50;;
19209;SDS011;9738;51.654;14.238;2022-08-16T03:38:11;4.90;;;3.60;;
19209;SDS011;9738;51.654;14.238;2022-08-16T03:40:39;5.10;;;4.33;;
19209;SDS011;9738;51.654;14.238;2022-08-16T03:43:07;3.80;;;3.40;;
19209;SDS011;9738;51.654;14.238;2022-08-16T03:45:35;4.67;;;4.00;;
19209;SDS011;9738;51.654;14.238;2022-08-16T03:48:02;5.07;;;3.70;;
19209;SDS011;9738;51.654;14.238;2022-08-16T03:50:30;5.00;;;3.67;;
19209;SDS011;9738;51.654;14.238;2022-08-16T03:52:56;6.67;;;4.37;;
19209;SDS011;9738;51.654;14.238;2022-08-16T03:55:22;4.37;;;3.93;;
19209;SDS011;9738;51.654;14.238;2022-08-16T03:57:48;4.30;;;3.77;;
19209;SDS011;9738;51.654;14.238;2022-08-16T04:00:17;4.87;;;3.20;;
19209;SDS011;9738;51.654;14.238;2022-08-16T04:02:46;5.10;;;3.67;;
19209;SDS011;9738;51.654;14.238;2022-08-16T04:05:14;4.67;;;3.40;;
19209;SDS011;9738;51.654;14.238;2022-08-16T04:07:40;7.87;;;3.90;;
19209;SDS011;9738;51.654;14.238;2022-08-16T04:10:07;6.10;;;4.23;;
19209;SDS011;9738;51.654;14.238;2022-08-16T04:12:35;5.00;;;3.63;;
19209;SDS011;9738;51.654;14.238;2022-08-16T04:15:01;5.17;;;3.30;;
19209;SDS011;9738;51.654;14.238;2022-08-16T04:17:29;4.60;;;4.00;;
19209;SDS011;9738;51.654;14.238;2022-08-16T04:19:55;4.43;;;3.57;;
19209;SDS011;9738;51.654;14.238;2022-08-16T04:22:21;4.90;;;3.53;;
19209;SDS011;9738;51.654;14.238;2022-08-16T04:24:47;5.23;;;3.53;;
19209;SDS011;9738;51.654;14.238;2022-08-16T04:27:14;6.07;;;4.00;;
19209;SDS011;9738;51.654;14.238;2022-08-16T04:29:40;3.60;;;3.23;;
19209;SDS011;9738;51.654;14.238;2022-08-16T04:32:05;7.57;;;4.00;;
19209;SDS011;9738;51.654;14.238;2022-08-16T04:34:33;4.30;;;3.63;;
19209;SDS011;9738;51.654;14.238;2022-08-16T04:37:01;7.00;;;4.30;;
19209;SDS011;9738;51.654;14.238;2022-08-16T04:39:29;4.87;;;4.27;;
19209;SDS011;9738;51.654;14.238;2022-08-16T04:41:57;4.73;;;3.83;;
19209;SDS011;9738;51.654;14.238;2022-08-16T04:44:23;10.70;;;4.47;;
19209;SDS011;9738;51.654;14.238;2022-08-16T04:46:50;6.27;;;4.00;;
19209;SDS011;9738;51.654;14.238;2022-08-16T04:49:17;6.27;;;4.10;;
19209;SDS011;9738;51.654;14.238;2022-08-16T04:51:43;6.03;;;4.37;;
19209;SDS011;9738;51.654;14.238;2022-08-16T04:54:09;7.20;;;4.07;;
19209;SDS011;9738;51.654;14.238;2022-08-16T04:56:36;5.20;;;3.77;;
19209;SDS011;9738;51.654;14.238;2022-08-16T04:59:03;6.70;;;4.53;;
19209;SDS011;9738;51.654;14.238;2022-08-16T05:01:30;8.60;;;5.63;;
19209;SDS011;9738;51.654;14.238;2022-08-16T05:03:56;7.10;;;5.67;;
19209;SDS011;9738;51.654;14.238;2022-08-16T05:06:22;5.53;;;4.27;;
19209;SDS011;9738;51.654;14.238;2022-08-16T05:08:47;6.10;;;4.80;;
19209;SDS011;9738;51.654;14.238;2022-08-16T05:11:14;6.70;;;4.63;;
19209;SDS011;9738;51.654;14.238;2022-08-16T05:13:43;6.33;;;5.27;;
19209;SDS011;9738;51.654;14.238;2022-08-16T05:16:11;5.13;;;4.37;;
19209;SDS011;9738;51.654;14.238;2022-08-16T05:18:40;6.77;;;5.10;;
19209;SDS011;9738;51.654;14.238;2022-08-16T05:21:06;9.03;;;5.47;;
19209;SDS011;9738;51.654;14.238;2022-08-16T05:23:31;8.13;;;4.93;;
19209;SDS011;9738;51.654;14.238;2022-08-16T05:25:57;6.83;;;4.70;;
19209;SDS011;9738;51.654;14.238;2022-08-16T05:28:25;10.13;;;5.67;;
19209;SDS011;9738;51.654;14.238;2022-08-16T05:30:51;7.70;;;5.47;;
19209;SDS011;9738;51.654;14.238;2022-08-16T05:33:18;8.70;;;5.33;;
19209;SDS011;9738;51.654;14.238;2022-08-16T05:35:46;8.87;;;5.33;;
19209;SDS011;9738;51.654;14.238;2022-08-16T05:38:12;6.27;;;5.07;;
19209;SDS011;9738;51.654;14.238;2022-08-16T05:40:39;5.93;;;4.83;;
19209;SDS011;9738;51.654;14.238;2022-08-16T05:43:05;7.13;;;4.93;;
19209;SDS011;9738;51.654;14.238;2022-08-16T05:45:31;7.10;;;5.50;;
19209;SDS011;9738;51.654;14.238;2022-08-16T05:47:58;8.00;;;4.90;;
19209;SDS011;9738;51.654;14.238;2022-08-16T05:50:24;7.87;;;5.17;;
19209;SDS011;9738;51.654;14.238;2022-08-16T05:52:50;7.93;;;5.80;;
19209;SDS011;9738;51.654;14.238;2022-08-16T05:55:16;8.17;;;5.83;;
19209;SDS011;9738;51.654;14.238;2022-08-16T05:57:43;7.23;;;5.50;;
19209;SDS011;9738;51.654;14.238;2022-08-16T06:00:10;8.33;;;4.70;;
19209;SDS011;9738;51.654;14.238;2022-08-16T06:02:38;7.70;;;5.07;;
19209;SDS011;9738;51.654;14.238;2022-08-16T06:05:05;9.43;;;5.43;;
19209;SDS011;9738;51.654;14.238;2022-08-16T06:07:31;7.10;;;5.67;;
19209;SDS011;9738;51.654;14.238;2022-08-16T06:09:57;7.23;;;5.20;;
19209;SDS011;9738;51.654;14.238;2022-08-16T06:12:24;6.63;;;4.80;;
19209;SDS011;9738;51.654;14.238;2022-08-16T06:14:50;5.37;;;4.70;;
19209;SDS011;9738;51.654;14.238;2022-08-16T06:17:17;5.10;;;4.60;;
19209;SDS011;9738;51.654;14.238;2022-08-16T06:19:43;5.63;;;4.43;;
19209;SDS011;9738;51.654;14.238;2022-08-16T06:22:09;7.53;;;4.80;;
19209;SDS011;9738;51.654;14.238;2022-08-16T06:24:36;6.50;;;4.67;;
19209;SDS011;9738;51.654;14.238;2022-08-16T06:27:01;8.67;;;4.53;;
19209;SDS011;9738;51.654;14.238;2022-08-16T06:29:27;8.27;;;5.07;;
19209;SDS011;9738;51.654;14.238;2022-08-16T06:31:54;4.70;;;4.17;;
19209;SDS011;9738;51.654;14.238;2022-08-16T06:34:19;6.13;;;4.60;;
19209;SDS011;9738;51.654;14.238;2022-08-16T06:36:45;5.67;;;4.27;;
19209;SDS011;9738;51.654;14.238;2022-08-16T06:39:11;6.33;;;4.97;;
19209;SDS011;9738;51.654;14.238;2022-08-16T06:41:37;6.40;;;4.43;;
19209;SDS011;9738;51.654;14.238;2022-08-16T06:44:03;5.90;;;4.13;;
19209;SDS011;9738;51.654;14.238;2022-08-16T06:46:31;5.07;;;3.90;;
19209;SDS011;9738;51.654;14.238;2022-08-16T06:49:01;5.33;;;4.20;;
19209;SDS011;9738;51.654;14.238;2022-08-16T06:51:29;3.33;;;3.03;;
19209;SDS011;9738;51.654;14.238;2022-08-16T06:53:55;6.30;;;4.00;;
19209;SDS011;9738;51.654;14.238;2022-08-16T06:56:21;4.33;;;3.67;;
19209;SDS011;9738;51.654;14.238;2022-08-16T06:58:48;4.63;;;4.20;;
19209;SDS011;9738;51.654;14.238;2022-08-16T07:01:13;7.03;;;4.07;;
19209;SDS011;9738;51.654;14.238;2022-08-16T07:03:39;3.87;;;3.47;;
19209;SDS011;9738;51.654;14.238;2022-08-16T07:06:06;4.00;;;3.60;;
19209;SDS011;9738;51.654;14.238;2022-08-16T07:08:32;5.40;;;4.30;;
19209;SDS011;9738;51.654;14.238;2022-08-16T07:10:57;4.93;;;3.47;;
19209;SDS011;9738;51.654;14.238;2022-08-16T07:13:24;5.90;;;3.67;;
19209;SDS011;9738;51.654;14.238;2022-08-16T07:15:50;5.00;;;3.50;;
19209;SDS011;9738;51.654;14.238;2022-08-16T07:18:18;3.90;;;3.40;;
19209;SDS011;9738;51.654;14.238;2022-08-16T07:20:46;5.10;;;3.80;;
19209;SDS011;9738;51.654;14.238;2022-08-16T07:23:14;4.43;;;3.50;;
19209;SDS011;9738;51.654;14.238;2022-08-16T07:25:40;4.43;;;3.33;;
19209;SDS011;9738;51.654;14.238;2022-08-16T07:28:07;6.73;;;3.63;;
19209;SDS011;9738;51.654;14.238;2022-08-16T07:30:34;4.43;;;3.60;;
19209;SDS011;9738;51.654;14.238;2022-08-16T07:33:01;4.10;;;3.70;;
19209;SDS011;9738;51.654;14.238;2022-08-16T07:35:29;5.60;;;4.23;;
19209;SDS011;9738;51.654;14.238;2022-08-16T07:37:55;4.57;;;4.13;;
19209;SDS011;9738;51.654;14.238;2022-08-16T07:40:21;3.97;;;3.13;;
19209;SDS011;9738;51.654;14.238;2022-08-16T07:42:47;3.50;;;3.20;;
19209;SDS011;9738;51.654;14.238;2022-08-16T07:45:13;4.00;;;3.57;;
19209;SDS011;9738;51.654;14.238;2022-08-16T07:47:39;4.00;;;3.37;;
19209;SDS011;9738;51.654;14.238;2022-08-16T07:50:06;4.13;;;3.72;;
19209;SDS011;9738;51.654;14.238;2022-08-16T07:52:32;3.75;;;3.33;;
19209;SDS011;9738;51.654;14.238;2022-08-16T07:54:58;4.40;;;4.00;;
19209;SDS011;9738;51.654;14.238;2022-08-16T07:57:24;3.42;;;3.13;;
19209;SDS011;9738;51.654;14.238;2022-08-16T07:59:50;5.38;;;4.28;;
19209;SDS011;9738;51.654;14.238;2022-08-16T08:02:16;4.18;;;3.78;;
19209;SDS011;9738;51.654;14.238;2022-08-16T08:04:43;3.95;;;3.38;;
19209;SDS011;9738;51.654;14.238;2022-08-16T08:07:09;3.65;;;3.25;;
19209;SDS011;9738;51.654;14.238;2022-08-16T08:09:36;3.45;;;3.13;;
19209;SDS011;9738;51.654;14.238;2022-08-16T08:12:03;3.63;;;3.28;;
19209;SDS011;9738;51.654;14.238;2022-08-16T08:14:29;4.18;;;3.70;;
19209;SDS011;9738;51.654;14.238;2022-08-16T08:16:57;3.65;;;3.35;;
19209;SDS011;9738;51.654;14.238;2022-08-16T08:19:24;3.88;;;3.47;;
19209;SDS011;9738;51.654;14.238;2022-08-16T08:21:50;4.82;;;2.92;;
19209;SDS011;9738;51.654;14.238;2022-08-16T08:24:18;3.50;;;3.20;;
19209;SDS011;9738;51.654;14.238;2022-08-16T08:26:46;3.40;;;3.10;;
19209;SDS011;9738;51.654;14.238;2022-08-16T08:29:12;3.55;;;3.20;;
19209;SDS011;9738;51.654;14.238;2022-08-16T08:31:38;3.67;;;3.03;;
19209;SDS011;9738;51.654;14.238;2022-08-16T08:34:07;3.47;;;3.17;;
19209;SDS011;9738;51.654;14.238;2022-08-16T08:36:33;3.90;;;3.53;;
19209;SDS011;9738;51.654;14.238;2022-08-16T08:39:03;5.03;;;4.53;;
19209;SDS011;9738;51.654;14.238;2022-08-16T08:41:30;4.57;;;3.10;;
19209;SDS011;9738;51.654;14.238;2022-08-16T08:43:56;3.50;;;3.20;;
19209;SDS011;9738;51.654;14.238;2022-08-16T08:46:23;3.35;;;3.05;;
19209;SDS011;9738;51.654;14.238;2022-08-16T08:48:50;3.75;;;3.25;;
19209;SDS011;9738;51.654;14.238;2022-08-16T08:51:17;4.07;;;3.30;;
19209;SDS011;9738;51.654;14.238;2022-08-16T08:53:44;4.75;;;3.42;;
19209;SDS011;9738;51.654;14.238;2022-08-16T08:56:11;3.42;;;3.00;;
19209;SDS011;9738;51.654;14.238;2022-08-16T08:58:38;3.25;;;2.95;;
19209;SDS011;9738;51.654;14.238;2022-08-16T09:01:04;2.58;;;2.38;;
19209;SDS011;9738;51.654;14.238;2022-08-16T09:03:32;4.63;;;3.00;;
19209;SDS011;9738;51.654;14.238;2022-08-16T09:05:59;3.15;;;2.85;;
19209;SDS011;9738;51.654;14.238;2022-08-16T09:08:26;4.05;;;3.35;;
19209;SDS011;9738;51.654;14.238;2022-08-16T09:10:53;3.15;;;2.85;;
19209;SDS011;9738;51.654;14.238;2022-08-16T09:13:23;3.40;;;3.05;;
19209;SDS011;9738;51.654;14.238;2022-08-16T09:15:50;4.10;;;3.10;;
19209;SDS011;9738;51.654;14.238;2022-08-16T09:18:18;5.50;;;3.10;;
19209;SDS011;9738;51.654;14.238;2022-08-16T09:20:44;3.67;;;3.30;;
19209;SDS011;9738;51.654;14.238;2022-08-16T09:23:10;2.72;;;2.53;;
19209;SDS011;9738;51.654;14.238;2022-08-16T09:25:37;2.70;;;2.50;;
19209;SDS011;9738;51.654;14.238;2022-08-16T09:28:04;2.75;;;2.55;;
19209;SDS011;9738;51.654;14.238;2022-08-16T09:30:31;5.22;;;3.20;;
19209;SDS011;9738;51.654;14.238;2022-08-16T09:33:00;3.50;;;2.50;;
19209;SDS011;9738;51.654;14.238;2022-08-16T09:35:28;3.97;;;3.13;;
19209;SDS011;9738;51.654;14.238;2022-08-16T09:37:54;3.97;;;2.75;;
19209;SDS011;9738;51.654;14.238;2022-08-16T09:40:22;3.65;;;2.38;;
19209;SDS011;9738;51.654;14.238;2022-08-16T09:42:48;3.13;;;2.83;;
19209;SDS011;9738;51.654;14.238;2022-08-16T09:45:14;2.95;;;2.63;;
19209;SDS011;9738;51.654;14.238;2022-08-16T09:47:40;2.70;;;2.25;;
19209;SDS011;9738;51.654;14.238;2022-08-16T09:50:07;2.63;;;2.42;;
19209;SDS011;9738;51.654;14.238;2022-08-16T09:52:35;4.05;;;2.75;;
19209;SDS011;9738;51.654;14.238;2022-08-16T09:55:06;3.38;;;3.08;;
19209;SDS011;9738;51.654;14.238;2022-08-16T09:57:37;3.10;;;2.78;;
19209;SDS011;9738;51.654;14.238;2022-08-16T10:00:07;3.03;;;2.67;;
19209;SDS011;9738;51.654;14.238;2022-08-16T10:02:35;3.80;;;2.72;;
19209;SDS011;9738;51.654;14.238;2022-08-16T10:05:02;2.42;;;2.22;;
19209;SDS011;9738;51.654;14.238;2022-08-16T10:07:29;5.75;;;2.60;;
19209;SDS011;9738;51.654;14.238;2022-08-16T10:09:56;2.40;;;2.20;;
19209;SDS011;9738;51.654;14.238;2022-08-16T10:12:25;2.60;;;2.40;;
19209;SDS011;9738;51.654;14.238;2022-08-16T10:15:13;2.70;;;2.38;;
19209;SDS011;9738;51.654;14.238;2022-08-16T10:17:40;3.03;;;2.72;;
19209;SDS011;9738;51.654;14.238;2022-08-16T10:20:07;2.85;;;2.55;;
19209;SDS011;9738;51.654;14.238;2022-08-16T10:22:36;2.90;;;2.60;;
19209;SDS011;9738;51.654;14.238;2022-08-16T10:25:04;3.08;;;2.30;;
19209;SDS011;9738;51.654;14.238;2022-08-16T10:27:31;3.28;;;2.97;;
19209;SDS011;9738;51.654;14.238;2022-08-16T10:30:00;2.80;;;2.60;;
19209;SDS011;9738;51.654;14.238;2022-08-16T10:32:28;2.67;;;2.47;;
19209;SDS011;9738;51.654;14.238;2022-08-16T10:34:54;3.40;;;2.70;;
19209;SDS011;9738;51.654;14.238;2022-08-16T10:37:21;2.83;;;2.63;;
19209;SDS011;9738;51.654;14.238;2022-08-16T10:39:47;4.95;;;2.17;;
19209;SDS011;9738;51.654;14.238;2022-08-16T10:42:13;2.50;;;2.30;;
19209;SDS011;9738;51.654;14.238;2022-08-16T10:44:39;5.50;;;2.38;;
19209;SDS011;9738;51.654;14.238;2022-08-16T10:47:05;3.28;;;2.38;;
19209;SDS011;9738;51.654;14.238;2022-08-16T10:49:31;2.60;;;2.22;;
19209;SDS011;9738;51.654;14.238;2022-08-16T10:51:57;2.42;;;2.20;;
19209;SDS011;9738;51.654;14.238;2022-08-16T10:54:23;2.13;;;1.90;;
19209;SDS011;9738;51.654;14.238;2022-08-16T10:56:49;2.25;;;2.10;;
19209;SDS011;9738;51.654;14.238;2022-08-16T10:59:16;2.15;;;1.98;;
19209;SDS011;9738;51.654;14.238;2022-08-16T11:01:41;2.67;;;2.45;;
19209;SDS011;9738;51.654;14.238;2022-08-16T11:04:07;2.38;;;2.17;;
19209;SDS011;9738;51.654;14.238;2022-08-16T11:06:33;3.33;;;2.20;;
19209;SDS011;9738;51.654;14.238;2022-08-16T11:08:59;2.30;;;2.08;;
19209;SDS011;9738;51.654;14.238;2022-08-16T11:11:25;2.20;;;2.00;;
19209;SDS011;9738;51.654;14.238;2022-08-16T11:13:51;5.60;;;2.13;;
19209;SDS011;9738;51.654;14.238;2022-08-16T11:16:17;2.28;;;2.03;;
19209;SDS011;9738;51.654;14.238;2022-08-16T11:18:44;2.08;;;1.88;;
19209;SDS011;9738;51.654;14.238;2022-08-16T11:21:12;1.75;;;1.65;;
19209;SDS011;9738;51.654;14.238;2022-08-16T11:23:39;2.17;;;1.95;;
19209;SDS011;9738;51.654;14.238;2022-08-16T11:26:05;5.97;;;2.17;;
19209;SDS011;9738;51.654;14.238;2022-08-16T11:28:33;2.53;;;1.92;;
19209;SDS011;9738;51.654;14.238;2022-08-16T11:31:00;1.77;;;1.67;;
19209;SDS011;9738;51.654;14.238;2022-08-16T11:33:26;2.03;;;1.90;;
19209;SDS011;9738;51.654;14.238;2022-08-16T11:35:52;1.73;;;1.60;;
19209;SDS011;9738;51.654;14.238;2022-08-16T11:38:19;1.80;;;1.70;;
19209;SDS011;9738;51.654;14.238;2022-08-16T11:40:48;2.20;;;1.67;;
19209;SDS011;9738;51.654;14.238;2022-08-16T11:43:21;1.92;;;1.83;;
19209;SDS011;9738;51.654;14.238;2022-08-16T11:45:52;2.25;;;1.95;;
19209;SDS011;9738;51.654;14.238;2022-08-16T11:48:20;2.08;;;1.73;;
19209;SDS011;9738;51.654;14.238;2022-08-16T11:50:47;2.20;;;1.90;;
19209;SDS011;9738;51.654;14.238;2022-08-16T11:53:13;1.92;;;1.60;;
19209;SDS011;9738;51.654;14.238;2022-08-16T11:55:40;2.03;;;1.83;;
19209;SDS011;9738;51.654;14.238;2022-08-16T11:58:07;2.20;;;2.00;;
19209;SDS011;9738;51.654;14.238;2022-08-16T12:00:34;3.45;;;1.88;;
19209;SDS011;9738;51.654;14.238;2022-08-16T12:03:02;2.35;;;1.85;;
19209;SDS011;9738;51.654;14.238;2022-08-16T12:05:28;1.80;;;1.70;;
19209;SDS011;9738;51.654;14.238;2022-08-16T12:07:55;2.10;;;1.70;;
19209;SDS011;9738;51.654;14.238;2022-08-16T12:10:22;1.85;;;1.70;;
19209;SDS011;9738;51.654;14.238;2022-08-16T12:12:49;2.10;;;2.00;;
19209;SDS011;9738;51.654;14.238;2022-08-16T12:15:16;2.72;;;1.70;;
19209;SDS011;9738;51.654;14.238;2022-08-16T12:17:44;3.20;;;1.85;;
19209;SDS011;9738;51.654;14.238;2022-08-16T12:20:11;2.15;;;1.83;;
19209;SDS011;9738;51.654;14.238;2022-08-16T12:22:40;1.48;;;1.38;;
19209;SDS011;9738;51.654;14.238;2022-08-16T12:25:08;1.67;;;1.58;;
19209;SDS011;9738;51.654;14.238;2022-08-16T12:27:37;1.70;;;1.60;;
19209;SDS011;9738;51.654;14.238;2022-08-16T12:30:04;1.63;;;1.52;;
19209;SDS011;9738;51.654;14.238;2022-08-16T12:32:31;2.00;;;1.88;;
19209;SDS011;9738;51.654;14.238;2022-08-16T12:34:56;1.98;;;1.65;;
19209;SDS011;9738;51.654;14.238;2022-08-16T12:37:22;3.13;;;1.63;;
19209;SDS011;9738;51.654;14.238;2022-08-16T12:39:50;1.77;;;1.67;;
19209;SDS011;9738;51.654;14.238;2022-08-16T12:42:20;2.38;;;1.70;;
19209;SDS011;9738;51.654;14.238;2022-08-16T12:44:47;1.83;;;1.48;;
19209;SDS011;9738;51.654;14.238;2022-08-16T12:47:15;3.22;;;1.90;;
19209;SDS011;9738;51.654;14.238;2022-08-16T12:50:00;1.90;;;1.70;;
19209;SDS011;9738;51.654;14.238;2022-08-16T12:52:27;2.38;;;2.05;;
19209;SDS011;9738;51.654;14.238;2022-08-16T12:54:54;1.80;;;1.70;;
19209;SDS011;9738;51.654;14.238;2022-08-16T12:57:22;1.90;;;1.70;;
19209;SDS011;9738;51.654;14.238;2022-08-16T12:59:50;1.77;;;1.67;;
19209;SDS011;9738;51.654;14.238;2022-08-16T13:02:16;2.05;;;1.80;;
19209;SDS011;9738;51.654;14.238;2022-08-16T13:04:43;2.53;;;1.98;;
19209;SDS011;9738;51.654;14.238;2022-08-16T13:07:10;4.72;;;1.90;;
19209;SDS011;9738;51.654;14.238;2022-08-16T13:09:35;2.42;;;1.90;;
19209;SDS011;9738;51.654;14.238;2022-08-16T13:12:12;1.70;;;1.60;;
19209;SDS011;9738;51.654;14.238;2022-08-16T13:14:48;1.60;;;1.50;;
19209;SDS011;9738;51.654;14.238;2022-08-16T13:17:17;2.20;;;1.60;;
19209;SDS011;9738;51.654;14.238;2022-08-16T13:19:47;1.70;;;1.60;;
19209;SDS011;9738;51.654;14.238;2022-08-16T13:22:14;1.50;;;1.40;;
19209;SDS011;9738;51.654;14.238;2022-08-16T13:24:40;1.70;;;1.60;;
19209;SDS011;9738;51.654;14.238;2022-08-16T13:27:06;1.95;;;1.55;;
19209;SDS011;9738;51.654;14.238;2022-08-16T13:29:32;5.88;;;1.70;;
19209;SDS011;9738;51.654;14.238;2022-08-16T13:31:58;2.08;;;1.55;;
19209;SDS011;9738;51.654;14.238;2022-08-16T13:34:24;2.17;;;1.60;;
19209;SDS011;9738;51.654;14.238;2022-08-16T13:36:50;1.70;;;1.60;;
19209;SDS011;9738;51.654;14.238;2022-08-16T13:39:16;2.40;;;1.80;;
19209;SDS011;9738;51.654;14.238;2022-08-16T13:41:42;1.80;;;1.70;;
19209;SDS011;9738;51.654;14.238;2022-08-16T13:44:08;2.17;;;1.80;;
19209;SDS011;9738;51.654;14.238;2022-08-16T13:46:35;1.70;;;1.60;;
19209;SDS011;9738;51.654;14.238;2022-08-16T13:49:02;1.70;;;1.60;;
19209;SDS011;9738;51.654;14.238;2022-08-16T13:51:28;1.75;;;1.63;;
19209;SDS011;9738;51.654;14.238;2022-08-16T13:53:56;1.80;;;1.70;;
19209;SDS011;9738;51.654;14.238;2022-08-16T13:56:23;1.40;;;1.30;;
19209;SDS011;9738;51.654;14.238;2022-08-16T13:58:50;1.60;;;1.50;;
19209;SDS011;9738;51.654;14.238;2022-08-16T14:01:17;1.80;;;1.70;;
19209;SDS011;9738;51.654;14.238;2022-08-16T14:03:44;1.55;;;1.45;;
19209;SDS011;9738;51.654;14.238;2022-08-16T14:06:10;1.60;;;1.50;;
19209;SDS011;9738;51.654;14.238;2022-08-16T14:08:38;1.67;;;1.58;;
19209;SDS011;9738;51.654;14.238;2022-08-16T14:11:05;1.50;;;1.40;;
19209;SDS011;9738;51.654;14.238;2022-08-16T14:13:33;1.83;;;1.45;;
19209;SDS011;9738;51.654;14.238;2022-08-16T14:15:59;1.40;;;1.30;;
19209;SDS011;9738;51.654;14.238;2022-08-16T14:18:25;1.85;;;1.73;;
19209;SDS011;9738;51.654;14.238;2022-08-16T14:20:50;1.63;;;1.52;;
19209;SDS011;9738;51.654;14.238;2022-08-16T14:23:17;1.80;;;1.70;;
19209;SDS011;9738;51.654;14.238;2022-08-16T14:25:43;1.60;;;1.50;;
19209;SDS011;9738;51.654;14.238;2022-08-16T14:28:08;1.60;;;1.50;;
19209;SDS011;9738;51.654;14.238;2022-08-16T14:30:35;1.63;;;1.50;;
19209;SDS011;9738;51.654;14.238;2022-08-16T14:33:02;2.47;;;1.48;;
19209;SDS011;9738;51.654;14.238;2022-08-16T14:35:29;2.00;;;1.52;;
19209;SDS011;9738;51.654;14.238;2022-08-16T14:37:57;1.70;;;1.60;;
19209;SDS011;9738;51.654;14.238;2022-08-16T14:40:23;1.50;;;1.40;;
19209;SDS011;9738;51.654;14.238;2022-08-16T14:42:49;1.77;;;1.67;;
19209;SDS011;9738;51.654;14.238;2022-08-16T14:45:17;3.20;;;1.83;;
19209;SDS011;9738;51.654;14.238;2022-08-16T14:47:46;3.78;;;1.85;;
19209;SDS011;9738;51.654;14.238;2022-08-16T14:50:13;1.80;;;1.67;;
19209;SDS011;9738;51.654;14.238;2022-08-16T14:52:42;1.52;;;1.42;;
19209;SDS011;9738;51.654;14.238;2022-08-16T14:55:10;1.60;;;1.50;;